Silver Houston — 3FWW5 — position and weather

sailwx.info

Track history (hours):
 
Tides and Currents Weather Stations Pressure Air Temp Water Temp Dewpoint Dewpoint Depression Visibility Wind Speed Wind Dir Waves Ship Positions

Silver Houston

Last reported at 2017-Nov-10 12:23 UTC. Time now 2017-Nov-23 07:55 UTC.
Position N 29°21' W 094°47'.
Warning: this ship's position is 12 days out of date.

Length 183 m; draft 10.9 m.

Type: Tanker. MMSI: 373105000.

Date/timePositionNaut miles runAvg speedWind from/ knotsBaromVisibWave heightAir tempDewpointWater temp
2017-Nov-10 12:23N 29°21' W 094°47'511.1
2017-Nov-10 11:53N 29°26' W 094°50'410.7
2017-Nov-10 11:30N 29°30' W 094°52'510.4
2017-Nov-10 11:00N 29°34' W 094°55'510.2
2017-Nov-10 10:30N 29°39' W 094°58'4 8.6
2017-Nov-10 10:00N 29°42' W 095°01'3 5.7
2017-Nov-10 09:30N 29°44' W 095°03'2 4.9
2017-Nov-10 09:00N 29°45' W 095°06'2 4.8
2017-Nov-10 08:30N 29°44' W 095°09'1 2.1
2017-Nov-10 08:00N 29°44' W 095°10'0 0.0
2017-Nov-08 15:24N 29°44' W 095°10'0 0.4
2017-Nov-08 15:00N 29°45' W 095°10'2 4.4
2017-Nov-08 14:30N 29°44' W 095°07'3 5.9
2017-Nov-08 14:00N 29°46' W 095°04'3 6.7
2017-Nov-08 13:30N 29°43' W 095°01'4 7.3
2017-Nov-08 13:00N 29°41' W 094°59'510.8
2017-Nov-08 12:31N 29°36' W 094°56'611.3
2017-Nov-08 12:00N 29°31' W 094°53'611.1
2017-Nov-08 11:30N 29°26' W 094°50'610.4
2017-Nov-08 10:59N 29°21' W 094°47'14 0.6
2017-Nov-07 10:29N 29°17' W 094°31'6 8.2
2017-Nov-07 09:47N 29°12' W 094°28'411.8
2017-Nov-07 09:29N 29°10' W 094°24'  
Track history (hours):
 
Tides and Currents Weather Stations Pressure Air Temp Water Temp Dewpoint Dewpoint Depression Visibility Wind Speed Wind Dir Waves Ship Positions

Silver Houston

Last reported at 2017-Nov-10 12:23 UTC. Time now 2017-Nov-23 07:55 UTC.
Position N 29°21' W 094°47'.
Warning: this ship's position is 12 days out of date.

Length 183 m; draft 10.9 m.

Type: Tanker. MMSI: 373105000.

Date/timePositionNaut miles runAvg speedWind from/ knotsBaromVisibWave heightAir tempDewpointWater temp
2017-Nov-10 12:23N 29°21' W 094°47'511.1
2017-Nov-10 11:53N 29°26' W 094°50'410.7
2017-Nov-10 11:30N 29°30' W 094°52'510.4
2017-Nov-10 11:00N 29°34' W 094°55'510.2
2017-Nov-10 10:30N 29°39' W 094°58'4 8.6
2017-Nov-10 10:00N 29°42' W 095°01'3 5.7
2017-Nov-10 09:30N 29°44' W 095°03'2 4.9
2017-Nov-10 09:00N 29°45' W 095°06'2 4.8
2017-Nov-10 08:30N 29°44' W 095°09'1 2.1
2017-Nov-10 08:00N 29°44' W 095°10'0 0.0
2017-Nov-08 15:24N 29°44' W 095°10'0 0.4
2017-Nov-08 15:00N 29°45' W 095°10'2 4.4
2017-Nov-08 14:30N 29°44' W 095°07'3 5.9
2017-Nov-08 14:00N 29°46' W 095°04'3 6.7
2017-Nov-08 13:30N 29°43' W 095°01'4 7.3
2017-Nov-08 13:00N 29°41' W 094°59'510.8
2017-Nov-08 12:31N 29°36' W 094°56'611.3
2017-Nov-08 12:00N 29°31' W 094°53'611.1
2017-Nov-08 11:30N 29°26' W 094°50'610.4
2017-Nov-08 10:59N 29°21' W 094°47'14 0.6
2017-Nov-07 10:29N 29°17' W 094°31'6 8.2
2017-Nov-07 09:47N 29°12' W 094°28'411.8
2017-Nov-07 09:29N 29°10' W 094°24'  

Dump ship's entire track history